createdAt,value
2016-12-11T00:00:42.183Z,0
2016-12-11T00:01:52.934Z,0
2016-12-11T00:03:03.675Z,0
2016-12-11T00:04:14.428Z,0
2016-12-11T00:05:25.193Z,0
2016-12-11T00:06:35.920Z,0
2016-12-11T00:07:46.665Z,0
2016-12-11T00:08:57.384Z,0
2016-12-11T00:10:08.107Z,0
2016-12-11T00:11:18.847Z,0
2016-12-11T00:12:29.586Z,0
2016-12-11T00:13:40.331Z,0
2016-12-11T00:14:51.339Z,0
2016-12-11T00:16:02.087Z,0
2016-12-11T00:17:12.827Z,0
2016-12-11T00:18:23.548Z,0
2016-12-11T00:19:34.270Z,0
2016-12-11T00:20:45.038Z,0
2016-12-11T00:21:55.768Z,0
2016-12-11T00:23:06.509Z,0
2016-12-11T00:24:17.250Z,0
2016-12-11T00:25:27.992Z,0
2016-12-11T00:26:38.743Z,0
2016-12-11T00:27:49.517Z,0
2016-12-11T00:29:00.269Z,0
2016-12-11T00:30:11.028Z,0
2016-12-11T00:31:21.776Z,0
2016-12-11T00:32:32.506Z,0
2016-12-11T00:33:43.249Z,0
2016-12-11T00:34:54.272Z,0
2016-12-11T00:36:05.037Z,0
2016-12-11T00:37:15.778Z,0
2016-12-11T00:38:26.532Z,0
2016-12-11T00:39:37.284Z,0
2016-12-11T00:40:48.048Z,0
2016-12-11T00:41:58.786Z,0
2016-12-11T00:43:09.519Z,0
2016-12-11T00:44:20.243Z,0
2016-12-11T00:45:31.010Z,0
2016-12-11T00:46:41.750Z,0
2016-12-11T00:47:52.475Z,0
2016-12-11T00:49:03.214Z,0
2016-12-11T00:50:13.947Z,0
2016-12-11T00:51:24.981Z,0
2016-12-11T00:52:35.731Z,0
2016-12-11T00:53:46.480Z,0
2016-12-11T00:54:57.194Z,0
2016-12-11T00:56:07.944Z,0
2016-12-11T00:57:18.669Z,0
2016-12-11T00:58:29.395Z,0
2016-12-11T00:59:40.452Z,0
2016-12-11T01:00:51.191Z,0
2016-12-11T01:02:01.949Z,0
2016-12-11T01:03:12.703Z,0
2016-12-11T01:04:23.437Z,0
2016-12-11T01:05:34.183Z,0
2016-12-11T01:06:44.911Z,0
2016-12-11T01:07:55.617Z,0
2016-12-11T01:09:06.357Z,0
2016-12-11T01:10:17.092Z,0
2016-12-11T01:11:27.863Z,0
2016-12-11T01:12:38.594Z,0
2016-12-11T01:13:49.344Z,0
2016-12-11T01:15:00.131Z,0
2016-12-11T01:16:10.857Z,0
2016-12-11T01:17:21.582Z,0
2016-12-11T01:18:32.340Z,0
2016-12-11T01:19:43.104Z,0
2016-12-11T01:20:53.845Z,0
2016-12-11T01:22:04.867Z,0
2016-12-11T01:23:15.613Z,0
2016-12-11T01:24:26.358Z,0
2016-12-11T01:25:37.097Z,0
2016-12-11T01:26:47.827Z,0
2016-12-11T01:27:58.850Z,0
2016-12-11T01:29:09.888Z,0
2016-12-11T01:30:20.667Z,0
2016-12-11T01:31:31.386Z,0
2016-12-11T01:32:42.132Z,0
2016-12-11T01:33:53.165Z,0
2016-12-11T01:35:03.898Z,0
2016-12-11T01:36:14.665Z,0
2016-12-11T01:37:25.415Z,0
2016-12-11T01:38:36.181Z,0
2016-12-11T01:39:46.903Z,0
2016-12-11T01:40:57.654Z,0
2016-12-11T01:42:08.372Z,0
2016-12-11T01:43:19.104Z,0
2016-12-11T01:44:29.849Z,0
2016-12-11T01:45:40.588Z,0
2016-12-11T01:46:51.339Z,0
2016-12-11T01:48:02.080Z,0
2016-12-11T01:49:12.803Z,0
2016-12-11T01:50:23.568Z,0
2016-12-11T01:51:34.319Z,0
2016-12-11T01:52:45.056Z,0
2016-12-11T01:53:55.803Z,0
2016-12-11T01:55:06.575Z,0
2016-12-11T01:56:17.599Z,0
2016-12-11T01:57:28.312Z,0
2016-12-11T01:58:39.063Z,0
2016-12-11T01:59:49.787Z,0
2016-12-11T02:01:00.527Z,0
2016-12-11T02:02:11.271Z,0
2016-12-11T02:03:22.007Z,0
2016-12-11T02:04:32.767Z,0
2016-12-11T02:05:43.498Z,0
2016-12-11T02:06:54.247Z,0
2016-12-11T02:08:04.986Z,0
2016-12-11T02:09:15.723Z,0
2016-12-11T02:10:26.427Z,0
2016-12-11T02:11:37.153Z,0
2016-12-11T02:12:47.911Z,0
2016-12-11T02:13:58.643Z,0
2016-12-11T02:15:09.363Z,0
2016-12-11T02:16:20.102Z,0
2016-12-11T02:17:30.850Z,0
2016-12-11T02:18:41.595Z,0
2016-12-11T02:19:52.329Z,0
2016-12-11T02:21:03.342Z,0
2016-12-11T02:22:14.084Z,0
2016-12-11T02:23:24.831Z,0
2016-12-11T02:24:35.572Z,0
2016-12-11T02:25:46.300Z,0
2016-12-11T02:26:57.017Z,0
2016-12-11T02:28:07.750Z,0
2016-12-11T02:29:18.495Z,0
2016-12-11T02:30:29.234Z,0
2016-12-11T02:31:40.261Z,0
2016-12-11T02:32:51.023Z,0
2016-12-11T02:34:01.752Z,0
2016-12-11T02:35:12.790Z,0
2016-12-11T02:36:23.533Z,0
2016-12-11T02:37:34.278Z,0
2016-12-11T02:38:44.983Z,0
2016-12-11T02:39:55.728Z,0
2016-12-11T02:41:06.450Z,0
2016-12-11T02:42:17.174Z,0
2016-12-11T02:43:27.915Z,0
2016-12-11T02:44:38.640Z,0
2016-12-11T02:45:49.386Z,0
2016-12-11T02:47:00.121Z,0
2016-12-11T02:48:10.874Z,0
2016-12-11T02:49:21.603Z,0
2016-12-11T02:50:32.346Z,0
2016-12-11T02:51:43.112Z,0
2016-12-11T02:52:53.856Z,0
2016-12-11T02:54:04.579Z,0
2016-12-11T02:55:15.318Z,0
2016-12-11T02:56:26.047Z,0
2016-12-11T02:57:36.794Z,0
2016-12-11T02:58:47.509Z,0
2016-12-11T02:59:58.264Z,0
2016-12-11T03:01:09.037Z,0
2016-12-11T03:02:19.806Z,0
2016-12-11T03:03:30.571Z,0
2016-12-11T03:04:41.339Z,0
2016-12-11T03:05:52.068Z,0
2016-12-11T03:07:02.828Z,0
2016-12-11T03:08:13.556Z,0
2016-12-11T03:09:24.272Z,0
2016-12-11T03:10:35.024Z,0
2016-12-11T03:11:45.769Z,0
2016-12-11T03:12:56.506Z,0
2016-12-11T03:14:07.237Z,0
2016-12-11T03:15:17.948Z,0
2016-12-11T03:16:28.694Z,0
2016-12-11T03:17:39.422Z,0
2016-12-11T03:18:50.152Z,0
2016-12-11T03:20:00.896Z,0
2016-12-11T03:21:11.640Z,0
2016-12-11T03:22:22.366Z,0
2016-12-11T03:23:33.111Z,0
2016-12-11T03:24:44.154Z,0
2016-12-11T03:25:54.887Z,0
2016-12-11T03:27:05.620Z,0
2016-12-11T03:28:16.340Z,0
2016-12-11T03:29:27.059Z,0
2016-12-11T03:30:37.800Z,0
2016-12-11T03:31:48.526Z,0
2016-12-11T03:32:59.301Z,0
2016-12-11T03:34:10.041Z,0
2016-12-11T03:35:20.764Z,0
2016-12-11T03:36:31.516Z,0
2016-12-11T03:37:42.253Z,0
2016-12-11T03:38:52.993Z,0
2016-12-11T03:40:03.726Z,0
2016-12-11T03:41:14.469Z,0
2016-12-11T03:42:25.186Z,0
2016-12-11T03:43:35.906Z,0
2016-12-11T03:44:46.612Z,0
2016-12-11T03:45:57.357Z,0
2016-12-11T03:47:08.128Z,0
2016-12-11T03:48:18.873Z,0
2016-12-11T03:49:29.620Z,0
2016-12-11T03:50:40.362Z,0
2016-12-11T03:51:51.073Z,0
2016-12-11T03:53:01.827Z,0
2016-12-11T03:54:12.559Z,0
2016-12-11T03:55:23.337Z,0
2016-12-11T03:56:34.399Z,0
2016-12-11T03:57:45.159Z,0
2016-12-11T03:58:55.887Z,0
2016-12-11T04:00:06.604Z,0
2016-12-11T04:01:17.671Z,0
2016-12-11T04:02:28.417Z,0
2016-12-11T04:03:39.171Z,0
2016-12-11T04:04:49.918Z,0
2016-12-11T04:06:00.689Z,0
2016-12-11T04:07:11.404Z,0
2016-12-11T04:08:22.117Z,0
2016-12-11T04:09:32.851Z,0
2016-12-11T04:10:43.614Z,0
2016-12-11T04:11:54.638Z,0
2016-12-11T04:13:05.363Z,0
2016-12-11T04:14:16.384Z,0
2016-12-11T04:15:27.123Z,0
2016-12-11T04:16:37.831Z,0
2016-12-11T04:17:48.585Z,0
2016-12-11T04:18:59.347Z,0
2016-12-11T04:20:10.088Z,0
2016-12-11T04:21:20.853Z,0
2016-12-11T04:22:31.595Z,0
2016-12-11T04:23:42.664Z,0
2016-12-11T04:24:53.411Z,0
2016-12-11T04:26:04.163Z,0
2016-12-11T04:27:14.919Z,0
2016-12-11T04:28:25.667Z,0
2016-12-11T04:29:36.427Z,0
2016-12-11T04:30:47.150Z,0
2016-12-11T04:31:57.894Z,0
2016-12-11T04:33:08.617Z,0
2016-12-11T04:34:19.337Z,0
2016-12-11T04:35:30.079Z,0
2016-12-11T04:36:40.802Z,0
2016-12-11T04:37:51.530Z,0
2016-12-11T04:39:02.276Z,0
2016-12-11T04:40:12.993Z,0
2016-12-11T04:41:23.712Z,0
2016-12-11T04:42:34.459Z,0
2016-12-11T04:43:45.185Z,0
2016-12-11T04:44:55.930Z,0
2016-12-11T04:46:06.676Z,0
2016-12-11T04:47:17.419Z,0
2016-12-11T04:48:28.144Z,0
2016-12-11T04:49:38.891Z,0
2016-12-11T04:50:49.632Z,0
2016-12-11T04:52:00.357Z,0
2016-12-11T04:53:11.127Z,0
2016-12-11T04:54:21.844Z,0
2016-12-11T04:55:32.569Z,0
2016-12-11T04:56:43.303Z,0
2016-12-11T04:57:54.058Z,0
2016-12-11T04:59:04.795Z,0
2016-12-11T05:00:15.530Z,0
2016-12-11T05:01:26.292Z,0
2016-12-11T05:02:37.038Z,0
2016-12-11T05:03:47.787Z,0
2016-12-11T05:04:58.530Z,0
2016-12-11T05:06:09.287Z,0
2016-12-11T05:07:20.332Z,0
2016-12-11T05:08:31.093Z,0
2016-12-11T05:09:41.847Z,0
2016-12-11T05:10:52.569Z,0
2016-12-11T05:12:03.309Z,0
2016-12-11T05:13:14.035Z,0
2016-12-11T05:14:24.794Z,0
2016-12-11T05:15:35.544Z,0
2016-12-11T05:16:46.286Z,0
2016-12-11T05:17:57.019Z,0
2016-12-11T05:19:07.761Z,0
2016-12-11T05:20:18.484Z,0
2016-12-11T05:21:29.203Z,0
2016-12-11T05:22:39.951Z,0
2016-12-11T05:23:50.973Z,0
2016-12-11T05:25:01.694Z,0
2016-12-11T05:26:12.436Z,0
2016-12-11T05:27:23.458Z,0
2016-12-11T05:28:34.195Z,0
2016-12-11T05:29:44.923Z,0
2016-12-11T05:30:55.649Z,0
2016-12-11T05:32:06.721Z,0
2016-12-11T05:33:17.493Z,0
2016-12-11T05:34:28.536Z,0
2016-12-11T05:35:39.262Z,0
2016-12-11T05:36:50.002Z,0
2016-12-11T05:38:00.748Z,0
2016-12-11T05:39:11.786Z,0
2016-12-11T05:40:22.516Z,0
2016-12-11T05:41:33.264Z,0
2016-12-11T05:42:43.982Z,0
2016-12-11T05:43:55.005Z,0
2016-12-11T05:45:05.752Z,0
2016-12-11T05:46:16.496Z,0
2016-12-11T05:47:27.558Z,0
2016-12-11T05:48:38.325Z,0
2016-12-11T05:49:49.108Z,0
2016-12-11T05:50:59.851Z,0
2016-12-11T05:52:10.588Z,0
2016-12-11T05:53:21.338Z,0
2016-12-11T05:54:32.066Z,0
2016-12-11T05:55:42.783Z,0
2016-12-11T05:56:53.522Z,0
2016-12-11T05:58:04.304Z,0
2016-12-11T05:59:15.026Z,0
2016-12-11T06:00:25.751Z,0
2016-12-11T06:01:36.505Z,0
2016-12-11T06:02:47.258Z,0
2016-12-11T06:03:58.001Z,0
2016-12-11T06:05:08.718Z,0
2016-12-11T06:06:19.446Z,0
2016-12-11T06:07:30.173Z,0
2016-12-11T06:08:40.934Z,0
2016-12-11T06:09:51.692Z,0
2016-12-11T06:11:02.427Z,0
2016-12-11T06:12:13.184Z,0
2016-12-11T06:13:24.222Z,0
2016-12-11T06:14:34.936Z,0
2016-12-11T06:15:45.660Z,0
2016-12-11T06:16:56.410Z,0
2016-12-11T06:18:07.138Z,0
2016-12-11T06:19:17.900Z,0
2016-12-11T06:20:28.631Z,0
2016-12-11T06:21:39.387Z,0
2016-12-11T06:22:50.121Z,0
2016-12-11T06:24:00.862Z,0
2016-12-11T06:25:11.582Z,0
2016-12-11T06:26:22.309Z,0
2016-12-11T06:27:33.071Z,0
2016-12-11T06:28:43.792Z,0
2016-12-11T06:29:54.534Z,0
2016-12-11T06:31:05.280Z,0
2016-12-11T06:32:16.283Z,0
2016-12-11T06:33:27.022Z,0
2016-12-11T06:34:37.776Z,0
2016-12-11T06:35:48.496Z,0
2016-12-11T06:36:59.235Z,0
2016-12-11T06:38:09.969Z,0
2016-12-11T06:39:20.735Z,0
2016-12-11T06:40:31.461Z,0
2016-12-11T06:41:42.202Z,0
2016-12-11T06:42:52.945Z,0
2016-12-11T06:44:03.671Z,0
2016-12-11T06:45:14.400Z,0
2016-12-11T06:46:25.158Z,0
2016-12-11T06:47:35.899Z,0
2016-12-11T06:48:46.950Z,0
2016-12-11T06:49:57.695Z,0
2016-12-11T06:51:08.424Z,0
2016-12-11T06:52:19.170Z,0
2016-12-11T06:53:29.915Z,0
2016-12-11T06:54:40.658Z,0
2016-12-11T06:55:51.408Z,0
2016-12-11T06:57:02.127Z,0
2016-12-11T06:58:12.875Z,0
2016-12-11T06:59:23.620Z,0
2016-12-11T07:00:34.343Z,0
2016-12-11T07:01:45.100Z,0
2016-12-11T07:02:55.826Z,0
2016-12-11T07:04:06.580Z,0
2016-12-11T07:05:17.318Z,0
2016-12-11T07:06:28.040Z,0
2016-12-11T07:07:38.755Z,0
2016-12-11T07:08:49.481Z,0
2016-12-11T07:10:00.222Z,0
2016-12-11T07:11:10.958Z,0
2016-12-11T07:12:21.722Z,0
2016-12-11T07:13:32.465Z,0
2016-12-11T07:14:43.195Z,0
2016-12-11T07:15:53.952Z,0
2016-12-11T07:17:04.723Z,0
2016-12-11T07:18:15.455Z,0
2016-12-11T07:19:26.158Z,0
2016-12-11T07:20:36.879Z,0
2016-12-11T07:21:47.594Z,0
2016-12-11T07:22:58.318Z,0
2016-12-11T07:24:09.350Z,0
2016-12-11T07:25:20.071Z,5
2016-12-11T07:26:30.843Z,5
2016-12-11T07:27:41.576Z,0
2016-12-11T07:28:52.298Z,5
2016-12-11T07:30:03.036Z,0
2016-12-11T07:31:13.755Z,5
2016-12-11T07:32:24.480Z,5
2016-12-11T07:33:35.259Z,5
2016-12-11T07:34:46.021Z,5
2016-12-11T07:35:56.735Z,10
2016-12-11T07:37:07.480Z,5
2016-12-11T07:38:18.211Z,10
2016-12-11T07:39:28.932Z,10
2016-12-11T07:40:39.673Z,10
2016-12-11T07:41:50.415Z,10
2016-12-11T07:43:01.161Z,10
2016-12-11T07:44:12.189Z,10
2016-12-11T07:45:22.920Z,15
2016-12-11T07:46:33.702Z,15
2016-12-11T07:47:44.757Z,20
2016-12-11T07:48:55.477Z,25
2016-12-11T07:50:06.195Z,15
2016-12-11T07:51:16.915Z,15
2016-12-11T07:52:27.658Z,25
2016-12-11T07:53:38.385Z,20
2016-12-11T07:54:49.125Z,20
2016-12-11T07:55:59.896Z,20
2016-12-11T07:57:10.625Z,25
2016-12-11T07:58:21.663Z,25
2016-12-11T07:59:32.409Z,15
2016-12-11T08:00:43.155Z,15
2016-12-11T08:01:53.900Z,20
2016-12-11T08:03:04.625Z,20
2016-12-11T08:04:15.363Z,15
2016-12-11T08:05:26.151Z,20
2016-12-11T08:06:36.892Z,20
2016-12-11T08:07:47.689Z,15
2016-12-11T08:08:58.430Z,15
2016-12-11T08:10:09.469Z,15
2016-12-11T08:11:20.203Z,10
2016-12-11T08:12:30.943Z,15
2016-12-11T08:13:41.690Z,15
2016-12-11T08:14:52.427Z,15
2016-12-11T08:16:03.173Z,25
2016-12-11T08:17:13.907Z,30
2016-12-11T08:18:24.649Z,25
2016-12-11T08:19:35.389Z,25
2016-12-11T08:20:46.119Z,25
2016-12-11T08:21:56.860Z,20
2016-12-11T08:23:07.604Z,35
2016-12-11T08:24:18.349Z,40
2016-12-11T08:25:29.103Z,55
2016-12-11T08:26:39.873Z,60
2016-12-11T08:27:50.623Z,35
2016-12-11T08:29:01.367Z,45
2016-12-11T08:30:12.107Z,40
2016-12-11T08:31:22.847Z,30
2016-12-11T08:32:33.596Z,20
2016-12-11T08:33:44.637Z,30
2016-12-11T08:34:55.387Z,25
2016-12-11T08:36:06.129Z,25
2016-12-11T08:37:17.179Z,20
2016-12-11T08:38:27.908Z,20
2016-12-11T08:39:38.655Z,20
2016-12-11T08:40:49.376Z,15
2016-12-11T08:42:00.109Z,15
2016-12-11T08:43:10.893Z,25
2016-12-11T08:44:21.664Z,55
2016-12-11T08:45:32.423Z,70
2016-12-11T08:46:43.176Z,50
2016-12-11T08:47:53.908Z,40
2016-12-11T08:49:04.949Z,35
2016-12-11T08:50:15.687Z,45
2016-12-11T08:51:26.414Z,55
2016-12-11T08:52:37.132Z,50
2016-12-11T08:53:47.852Z,55
2016-12-11T08:54:58.605Z,50
2016-12-11T08:56:09.346Z,55
2016-12-11T08:57:20.071Z,50
2016-12-11T08:58:30.808Z,45
2016-12-11T08:59:41.533Z,20
2016-12-11T09:00:52.254Z,20
2016-12-11T09:02:02.978Z,20
2016-12-11T09:03:13.717Z,25
2016-12-11T09:04:24.491Z,30
2016-12-11T09:05:35.242Z,55
2016-12-11T09:06:45.958Z,40
2016-12-11T09:07:56.676Z,70
2016-12-11T09:09:07.399Z,70
2016-12-11T09:10:18.129Z,50
2016-12-11T09:11:28.889Z,50
2016-12-11T09:12:39.621Z,40
2016-12-11T09:13:50.356Z,45
2016-12-11T09:15:01.085Z,35
2016-12-11T09:16:11.847Z,30
2016-12-11T09:17:22.553Z,25
2016-12-11T09:18:33.293Z,25
2016-12-11T09:19:44.016Z,20
2016-12-11T09:20:54.740Z,35
2016-12-11T09:22:05.485Z,40
2016-12-11T09:23:16.220Z,45
2016-12-11T09:24:26.941Z,30
2016-12-11T09:25:37.651Z,40
2016-12-11T09:26:48.382Z,50
2016-12-11T09:27:59.112Z,55
2016-12-11T09:29:09.840Z,70
2016-12-11T09:30:20.631Z,65
2016-12-11T09:31:31.341Z,60
2016-12-11T09:32:42.088Z,45
2016-12-11T09:33:52.820Z,45
2016-12-11T09:35:03.570Z,60
2016-12-11T09:36:14.289Z,80
2016-12-11T09:37:25.033Z,75
2016-12-11T09:38:35.751Z,70
2016-12-11T09:39:46.496Z,95
2016-12-11T09:40:57.225Z,45
2016-12-11T09:42:07.956Z,40
2016-12-11T09:43:18.702Z,75
2016-12-11T09:44:29.460Z,75
2016-12-11T09:45:40.207Z,225
2016-12-11T09:46:50.945Z,280
2016-12-11T09:48:01.669Z,290
2016-12-11T09:49:12.433Z,395
2016-12-11T09:50:23.195Z,500
2016-12-11T09:51:33.924Z,325
2016-12-11T09:52:44.660Z,350
2016-12-11T09:53:55.424Z,400
2016-12-11T09:55:06.149Z,260
2016-12-11T09:56:16.884Z,195
2016-12-11T09:57:27.620Z,180
2016-12-11T09:58:38.376Z,100
2016-12-11T09:59:49.127Z,45
2016-12-11T10:00:59.843Z,60
2016-12-11T10:02:10.896Z,95
2016-12-11T10:03:21.639Z,110
2016-12-11T10:04:32.369Z,145
2016-12-11T10:05:43.101Z,205
2016-12-11T10:06:53.833Z,295
2016-12-11T10:08:04.880Z,275
2016-12-11T10:09:15.643Z,285
2016-12-11T10:10:26.389Z,320
2016-12-11T10:11:37.135Z,175
2016-12-11T10:12:47.863Z,155
2016-12-11T10:13:58.602Z,165
2016-12-11T10:15:09.344Z,195
2016-12-11T10:16:20.089Z,190
2016-12-11T10:17:30.822Z,210
2016-12-11T10:18:41.592Z,155
2016-12-11T10:19:52.332Z,90
2016-12-11T10:21:03.073Z,105
2016-12-11T10:22:13.831Z,135
2016-12-11T10:23:24.565Z,170
2016-12-11T10:24:35.298Z,185
2016-12-11T10:25:46.036Z,230
2016-12-11T10:26:56.783Z,230
2016-12-11T10:28:07.511Z,200
2016-12-11T10:29:18.207Z,180
2016-12-11T10:30:28.941Z,155
2016-12-11T10:31:39.671Z,125
2016-12-11T10:32:50.391Z,135
2016-12-11T10:34:01.118Z,230
2016-12-11T10:35:11.888Z,310
2016-12-11T10:36:22.654Z,265
2016-12-11T10:37:33.379Z,300
2016-12-11T10:38:44.144Z,215
2016-12-11T10:39:54.891Z,235
2016-12-11T10:41:05.613Z,275
2016-12-11T10:42:16.360Z,360
2016-12-11T10:43:27.122Z,325
2016-12-11T10:44:37.856Z,355
2016-12-11T10:45:48.598Z,315
2016-12-11T10:46:59.298Z,215
2016-12-11T10:48:10.043Z,250
2016-12-11T10:49:20.794Z,210
2016-12-11T10:50:31.532Z,170
2016-12-11T10:51:42.269Z,170
2016-12-11T10:52:53.303Z,210
2016-12-11T10:54:04.066Z,185
2016-12-11T10:55:14.790Z,195
2016-12-11T10:56:25.528Z,180
2016-12-11T10:57:36.285Z,275
2016-12-11T10:58:47.006Z,200
2016-12-11T10:59:58.047Z,240
2016-12-11T11:01:08.789Z,285
2016-12-11T11:02:19.567Z,300
2016-12-11T11:03:30.306Z,250
2016-12-11T11:04:41.045Z,150
2016-12-11T11:05:51.805Z,105
2016-12-11T11:07:02.548Z,85
2016-12-11T11:08:13.278Z,100
2016-12-11T11:09:24.040Z,125
2016-12-11T11:10:35.116Z,140
2016-12-11T11:11:45.840Z,110
2016-12-11T11:12:56.556Z,115
2016-12-11T11:14:07.270Z,135
2016-12-11T11:15:17.991Z,165
2016-12-11T11:16:29.037Z,135
2016-12-11T11:17:39.795Z,140
2016-12-11T11:18:50.540Z,200
2016-12-11T11:20:01.262Z,225
2016-12-11T11:21:12.007Z,150
2016-12-11T11:22:22.727Z,160
2016-12-11T11:23:33.468Z,100
2016-12-11T11:24:44.521Z,100
2016-12-11T11:25:55.538Z,165
2016-12-11T11:27:06.564Z,240
2016-12-11T11:28:17.323Z,280
2016-12-11T11:29:28.031Z,260
2016-12-11T11:30:38.777Z,230
2016-12-11T11:31:49.522Z,155
2016-12-11T11:33:00.239Z,155
2016-12-11T11:34:10.944Z,140
2016-12-11T11:35:21.658Z,140
2016-12-11T11:36:32.396Z,135
2016-12-11T11:37:43.150Z,145
2016-12-11T11:38:53.896Z,240
2016-12-11T11:40:04.624Z,330
2016-12-11T11:41:15.364Z,330
2016-12-11T11:42:26.090Z,385
2016-12-11T11:43:36.860Z,290
2016-12-11T11:44:47.593Z,340
2016-12-11T11:45:58.346Z,305
2016-12-11T11:47:09.092Z,245
2016-12-11T11:48:19.846Z,235
2016-12-11T11:49:30.562Z,245
2016-12-11T11:50:41.283Z,200
2016-12-11T11:51:52.038Z,160
2016-12-11T11:53:02.798Z,170
2016-12-11T11:54:13.537Z,240
2016-12-11T11:55:24.268Z,210
2016-12-11T11:56:35.014Z,150
2016-12-11T11:57:45.752Z,145
2016-12-11T11:58:56.478Z,170
2016-12-11T12:00:07.205Z,255
2016-12-11T12:01:18.249Z,175
2016-12-11T12:02:28.966Z,160
2016-12-11T12:03:39.704Z,190
2016-12-11T12:04:50.438Z,185
2016-12-11T12:06:01.180Z,130
2016-12-11T12:07:12.201Z,150
2016-12-11T12:08:22.980Z,135
2016-12-11T12:09:33.720Z,135
2016-12-11T12:10:44.484Z,125
2016-12-11T12:11:55.225Z,115
2016-12-11T12:13:05.971Z,85
2016-12-11T12:14:16.722Z,65
2016-12-11T12:15:27.472Z,65
2016-12-11T12:16:38.214Z,80
2016-12-11T12:17:48.962Z,80
2016-12-11T12:18:59.683Z,85
2016-12-11T12:20:10.396Z,110
2016-12-11T12:21:21.129Z,100
2016-12-11T12:22:31.863Z,95
2016-12-11T12:23:42.568Z,100
2016-12-11T12:24:53.313Z,95
2016-12-11T12:26:04.056Z,95
2016-12-11T12:27:14.811Z,70
2016-12-11T12:28:25.581Z,80
2016-12-11T12:29:36.301Z,85
2016-12-11T12:30:47.045Z,90
2016-12-11T12:31:57.796Z,120
2016-12-11T12:33:08.538Z,105
2016-12-11T12:34:19.288Z,105
2016-12-11T12:35:30.074Z,120
2016-12-11T12:36:40.818Z,100
2016-12-11T12:37:51.544Z,100
2016-12-11T12:39:02.265Z,120
2016-12-11T12:40:13.014Z,135
2016-12-11T12:41:23.774Z,125
2016-12-11T12:42:34.506Z,100
2016-12-11T12:43:45.240Z,110
2016-12-11T12:44:55.970Z,100
2016-12-11T12:46:06.698Z,95
2016-12-11T12:47:17.442Z,120
2016-12-11T12:48:28.191Z,85
2016-12-11T12:49:38.920Z,90
2016-12-11T12:50:49.670Z,75
2016-12-11T12:52:00.417Z,90
2016-12-11T12:53:11.119Z,85
2016-12-11T12:54:21.816Z,140
2016-12-11T12:55:32.563Z,160
2016-12-11T12:56:43.327Z,115
2016-12-11T12:57:54.054Z,95
2016-12-11T12:59:04.824Z,100
2016-12-11T13:00:15.560Z,110
2016-12-11T13:01:26.294Z,80
2016-12-11T13:02:37.039Z,100
2016-12-11T13:03:47.802Z,95
2016-12-11T13:04:58.512Z,85
2016-12-11T13:06:09.240Z,85
2016-12-11T13:07:19.965Z,115
2016-12-11T13:08:30.711Z,75
2016-12-11T13:09:41.453Z,70
2016-12-11T13:10:52.203Z,60
2016-12-11T13:12:02.953Z,110
2016-12-11T13:13:13.694Z,70
2016-12-11T13:14:24.398Z,115
2016-12-11T13:15:35.100Z,100
2016-12-11T13:16:45.837Z,105
2016-12-11T13:17:56.555Z,95
2016-12-11T13:19:07.279Z,70
2016-12-11T13:20:18.001Z,90
2016-12-11T13:21:28.742Z,60
2016-12-11T13:22:39.459Z,70
2016-12-11T13:23:50.230Z,115
2016-12-11T13:25:00.994Z,115
2016-12-11T13:26:11.752Z,105
2016-12-11T13:27:22.500Z,90
2016-12-11T13:28:33.265Z,95
2016-12-11T13:29:43.968Z,85
2016-12-11T13:30:54.708Z,110
2016-12-11T13:32:05.769Z,75
2016-12-11T13:33:16.511Z,50
2016-12-11T13:34:27.274Z,30
2016-12-11T13:35:38.015Z,50
2016-12-11T13:36:48.761Z,60
2016-12-11T13:37:59.491Z,50
2016-12-11T13:39:10.257Z,65
2016-12-11T13:40:21.014Z,50
2016-12-11T13:41:31.750Z,50
2016-12-11T13:42:42.491Z,45
2016-12-11T13:43:53.225Z,35
2016-12-11T13:45:03.941Z,30
2016-12-11T13:46:14.688Z,40
2016-12-11T13:47:25.413Z,55
2016-12-11T13:48:36.159Z,45
2016-12-11T13:49:46.893Z,55
2016-12-11T13:50:57.639Z,65
2016-12-11T13:52:08.389Z,60
2016-12-11T13:53:19.114Z,65
2016-12-11T13:54:29.836Z,60
2016-12-11T13:55:40.578Z,55
2016-12-11T13:56:51.284Z,50
2016-12-11T13:58:02.028Z,40
2016-12-11T13:59:12.769Z,30
2016-12-11T14:00:23.521Z,40
2016-12-11T14:01:34.265Z,35
2016-12-11T14:02:45.286Z,35
2016-12-11T14:03:56.026Z,40
2016-12-11T14:05:06.753Z,40
2016-12-11T14:06:17.487Z,40
2016-12-11T14:07:28.221Z,45
2016-12-11T14:08:38.954Z,35
2016-12-11T14:09:49.705Z,40
2016-12-11T14:11:00.429Z,40
2016-12-11T14:12:11.451Z,35
2016-12-11T14:13:22.193Z,30
2016-12-11T14:14:32.934Z,20
2016-12-11T14:15:43.639Z,30
2016-12-11T14:16:54.363Z,25
2016-12-11T14:18:05.084Z,20
2016-12-11T14:19:16.111Z,10
2016-12-11T14:20:26.872Z,10
2016-12-11T14:21:37.618Z,15
2016-12-11T14:22:48.356Z,15
2016-12-11T14:23:59.116Z,20
2016-12-11T14:25:09.856Z,25
2016-12-11T14:26:20.631Z,25
2016-12-11T14:27:31.401Z,20
2016-12-11T14:28:42.135Z,20
2016-12-11T14:29:52.886Z,15
2016-12-11T14:31:03.592Z,15
2016-12-11T14:32:14.349Z,10
2016-12-11T14:33:25.059Z,5
2016-12-11T14:34:35.815Z,5
2016-12-11T14:35:46.566Z,10
2016-12-11T14:36:57.270Z,10
2016-12-11T14:38:08.029Z,10
2016-12-11T14:39:18.757Z,5
2016-12-11T14:40:29.503Z,10
2016-12-11T14:41:40.242Z,10
2016-12-11T14:42:50.988Z,5
2016-12-11T14:44:01.750Z,5
2016-12-11T14:45:12.529Z,10
2016-12-11T14:46:23.276Z,10
2016-12-11T14:47:34.009Z,5
2016-12-11T14:48:44.756Z,10
2016-12-11T14:49:55.506Z,5
2016-12-11T14:51:06.246Z,0
2016-12-11T14:53:17.713Z,5
2016-12-11T14:54:28.431Z,5
2016-12-11T14:55:39.473Z,5
2016-12-11T14:56:50.235Z,5
2016-12-11T14:58:00.975Z,0
2016-12-11T14:59:12.032Z,0
2016-12-11T15:00:22.789Z,5
2016-12-11T15:01:33.536Z,0
2016-12-11T15:02:44.281Z,0
2016-12-11T15:03:55.000Z,0
2016-12-11T15:05:05.712Z,0
2016-12-11T15:06:16.443Z,0
2016-12-11T15:07:27.178Z,0
2016-12-11T15:08:37.930Z,0
2016-12-11T15:09:48.671Z,0
2016-12-11T15:10:59.399Z,0
2016-12-11T15:12:10.122Z,0
2016-12-11T15:13:20.859Z,0
2016-12-11T15:14:31.591Z,0
2016-12-11T15:15:42.351Z,0
2016-12-11T15:16:53.079Z,0
2016-12-11T15:18:03.800Z,0
2016-12-11T15:19:14.522Z,0
2016-12-11T15:20:25.246Z,0
2016-12-11T15:21:36.006Z,0
2016-12-11T15:22:47.066Z,0
2016-12-11T15:23:58.097Z,0
2016-12-11T15:25:08.831Z,0
2016-12-11T15:26:19.596Z,0
2016-12-11T15:27:30.340Z,0
2016-12-11T15:28:41.085Z,0
2016-12-11T15:29:51.835Z,0
2016-12-11T15:31:02.559Z,0
2016-12-11T15:32:13.306Z,0
2016-12-11T15:33:24.065Z,0
2016-12-11T15:34:35.095Z,0
2016-12-11T15:35:45.817Z,0
2016-12-11T15:36:56.546Z,0
2016-12-11T15:38:07.299Z,0
2016-12-11T15:39:18.074Z,0
2016-12-11T15:40:28.824Z,0
2016-12-11T15:41:39.546Z,0
2016-12-11T15:42:50.283Z,0
2016-12-11T15:44:01.029Z,0
2016-12-11T15:45:11.779Z,0
2016-12-11T15:46:22.527Z,0
2016-12-11T15:47:33.259Z,0
2016-12-11T15:48:44.019Z,0
2016-12-11T15:49:54.764Z,0
2016-12-11T15:51:05.489Z,0
2016-12-11T15:52:16.226Z,0
2016-12-11T15:53:27.273Z,0
2016-12-11T15:54:38.025Z,0
2016-12-11T15:55:48.765Z,0
2016-12-11T15:56:59.522Z,0
2016-12-11T15:58:10.561Z,0
2016-12-11T15:59:21.289Z,0
2016-12-11T16:00:32.031Z,0
2016-12-11T16:01:42.755Z,0
2016-12-11T16:02:53.473Z,0
2016-12-11T16:04:04.219Z,0
2016-12-11T16:05:14.940Z,0
2016-12-11T16:06:25.664Z,0
2016-12-11T16:07:36.403Z,0
2016-12-11T16:08:47.133Z,0
2016-12-11T16:09:57.896Z,0
2016-12-11T16:11:08.637Z,0
2016-12-11T16:12:19.358Z,0
2016-12-11T16:13:30.091Z,0
2016-12-11T16:14:40.815Z,0
2016-12-11T16:15:51.571Z,0
2016-12-11T16:17:02.322Z,0
2016-12-11T16:18:13.376Z,0
2016-12-11T16:19:24.139Z,0
2016-12-11T16:20:34.864Z,0
2016-12-11T16:21:45.616Z,0
2016-12-11T16:22:56.334Z,0
2016-12-11T16:24:07.077Z,0
2016-12-11T16:25:17.820Z,0
2016-12-11T16:26:28.518Z,0
2016-12-11T16:27:39.239Z,0
2016-12-11T16:28:49.977Z,0
2016-12-11T16:30:00.707Z,0
2016-12-11T16:31:11.431Z,0
2016-12-11T16:32:22.160Z,0
2016-12-11T16:33:32.886Z,0
2016-12-11T16:34:43.615Z,0
2016-12-11T16:35:54.341Z,0
2016-12-11T16:37:05.057Z,0
2016-12-11T16:38:15.754Z,0
2016-12-11T16:39:26.478Z,0
2016-12-11T16:40:37.196Z,0
2016-12-11T16:41:47.917Z,0
2016-12-11T16:42:58.662Z,0
2016-12-11T16:44:09.663Z,0
2016-12-11T16:45:20.409Z,0
2016-12-11T16:46:31.175Z,0
2016-12-11T16:47:41.900Z,0
2016-12-11T16:48:52.635Z,0
2016-12-11T16:50:03.381Z,0
2016-12-11T16:51:14.101Z,0
2016-12-11T16:52:24.877Z,0
2016-12-11T16:53:35.607Z,0
2016-12-11T16:54:46.344Z,0
2016-12-11T16:55:57.073Z,0
2016-12-11T16:57:07.795Z,0
2016-12-11T16:58:18.857Z,0
2016-12-11T16:59:29.578Z,0
2016-12-11T17:00:40.319Z,0
2016-12-11T17:01:51.065Z,0
2016-12-11T17:03:01.816Z,0
2016-12-11T17:04:12.546Z,0
2016-12-11T17:05:23.311Z,0